QAK9 MMUN-MMQT
Flight info
| Callsign | QAK9 |
|---|---|
| Flight time | 1h 48m |
| Altitude | 34000 |
| Route | UDGUV2A UDGUV DCT MID DCT LIDAM UT23 TAM UJ14 TMN DCT MORAS UJ17 QET |
| Aircraft | B738/M-SDE2E3FGHIRWXY/LB1 |
Departure
| Time | 2026-04-25 17:46 |
|---|---|
| Airport | Cancún International Airport (MMUN) |
Arrival
| Time | 2026-04-25 19:34 |
|---|---|
| Airport | Querétaro Intercontinental Airport (MMQT) |
| Time | Latitude | Longitude | Altitude | Speed | Heading |
|---|---|---|---|---|---|
| 2026-04-25 17:19 | 21.04059 | -86.87689 | 28 ft | 0 kts | 128° |
| 2026-04-25 17:35 | 21.04074 | -86.87707 | 28 ft | 4 kts | 136° |
| 2026-04-25 17:35 | 21.04095 | -86.87725 | 28 ft | 4 kts | 156° |
| 2026-04-25 17:35 | 21.04118 | -86.87730 | 28 ft | 4 kts | 202° |
| 2026-04-25 17:36 | 21.04125 | -86.87727 | 28 ft | 1 kts | 214° |
| 2026-04-25 17:39 | 21.04123 | -86.87728 | 28 ft | 1 kts | 214° |
| 2026-04-25 17:40 | 21.04107 | -86.87740 | 28 ft | 5 kts | 214° |
| 2026-04-25 17:40 | 21.04069 | -86.87767 | 28 ft | 9 kts | 214° |
| 2026-04-25 17:40 | 21.04010 | -86.87809 | 29 ft | 12 kts | 213° |
| 2026-04-25 17:40 | 21.03965 | -86.87876 | 29 ft | 12 kts | 282° |
| 2026-04-25 17:41 | 21.04010 | -86.87950 | 29 ft | 12 kts | 304° |
| 2026-04-25 17:41 | 21.04059 | -86.88028 | 29 ft | 14 kts | 303° |
| 2026-04-25 17:41 | 21.04120 | -86.88127 | 29 ft | 18 kts | 304° |
| 2026-04-25 17:41 | 21.04197 | -86.88248 | 29 ft | 21 kts | 304° |
| 2026-04-25 17:42 | 21.04284 | -86.88387 | 30 ft | 23 kts | 304° |
| 2026-04-25 17:42 | 21.04371 | -86.88524 | 30 ft | 22 kts | 304° |
| 2026-04-25 17:42 | 21.04454 | -86.88658 | 30 ft | 21 kts | 304° |
| 2026-04-25 17:42 | 21.04537 | -86.88789 | 29 ft | 21 kts | 304° |
| 2026-04-25 17:43 | 21.04615 | -86.88915 | 29 ft | 20 kts | 304° |
| 2026-04-25 17:43 | 21.04637 | -86.89000 | 29 ft | 11 kts | 243° |
| 2026-04-25 17:43 | 21.04613 | -86.89024 | 30 ft | 0 kts | 213° |
| 2026-04-25 17:44 | 21.04605 | -86.89030 | 30 ft | 3 kts | 215° |
| 2026-04-25 17:44 | 21.04571 | -86.89055 | 31 ft | 8 kts | 214° |
| 2026-04-25 17:45 | 21.04515 | -86.89072 | 31 ft | 5 kts | 149° |
| 2026-04-25 17:45 | 21.04508 | -86.89063 | 31 ft | 5 kts | 127° |
| 2026-04-25 17:45 | 21.04232 | -86.88620 | 34 ft | 99 kts | 124° |
| 2026-04-25 17:45 | 21.03729 | -86.87815 | 40 ft | 157 kts | 124° |
| 2026-04-25 17:46 | 21.03110 | -86.86821 | 728 ft | 156 kts | 125° |
| 2026-04-25 17:46 | 21.02496 | -86.85797 | 1389 ft | 172 kts | 124° |
| 2026-04-25 17:46 | 21.01726 | -86.84813 | 2073 ft | 180 kts | 147° |
| 2026-04-25 17:46 | 21.00451 | -86.84475 | 2314 ft | 210 kts | 185° |
| 2026-04-25 17:47 | 20.98991 | -86.84957 | 2631 ft | 231 kts | 210° |
| 2026-04-25 17:47 | 20.97640 | -86.85919 | 3065 ft | 245 kts | 212° |
| 2026-04-25 17:47 | 20.96148 | -86.86971 | 3037 ft | 267 kts | 212° |
| 2026-04-25 17:47 | 20.94621 | -86.88106 | 2994 ft | 268 kts | 221° |
| 2026-04-25 17:48 | 20.93238 | -86.91701 | 2996 ft | 265 kts | 260° |
| 2026-04-25 17:48 | 20.92979 | -86.93644 | 3004 ft | 263 kts | 259° |
| 2026-04-25 17:48 | 20.92713 | -86.95579 | 2997 ft | 263 kts | 259° |
| 2026-04-25 17:49 | 20.92439 | -86.97529 | 3004 ft | 266 kts | 259° |
| 2026-04-25 17:49 | 20.92159 | -86.99493 | 3010 ft | 267 kts | 258° |
| 2026-04-25 17:49 | 20.91875 | -87.01469 | 3342 ft | 269 kts | 259° |
| 2026-04-25 17:49 | 20.91589 | -87.03440 | 4199 ft | 270 kts | 260° |
| 2026-04-25 17:50 | 20.91300 | -87.05442 | 5088 ft | 272 kts | 261° |
| 2026-04-25 17:50 | 20.91012 | -87.07434 | 5923 ft | 275 kts | 262° |
| 2026-04-25 17:50 | 20.90716 | -87.09473 | 6722 ft | 278 kts | 263° |
| 2026-04-25 17:50 | 20.90418 | -87.11536 | 7443 ft | 282 kts | 263° |
| 2026-04-25 17:51 | 20.90118 | -87.13604 | 7839 ft | 284 kts | 263° |
| 2026-04-25 17:51 | 20.89812 | -87.15716 | 7955 ft | 287 kts | 263° |
| 2026-04-25 17:51 | 20.89504 | -87.17837 | 7969 ft | 289 kts | 263° |
| 2026-04-25 17:51 | 20.89198 | -87.19941 | 7970 ft | 288 kts | 263° |
| 2026-04-25 17:52 | 20.88891 | -87.22045 | 7968 ft | 288 kts | 263° |
| 2026-04-25 17:52 | 20.88786 | -87.22765 | 7969 ft | 288 kts | 263° |
| 2026-04-25 17:52 | 20.88274 | -87.26277 | 7968 ft | 287 kts | 263° |
| 2026-04-25 17:52 | 20.87968 | -87.28371 | 7975 ft | 287 kts | 263° |
| 2026-04-25 17:53 | 20.87660 | -87.30489 | 7966 ft | 287 kts | 263° |
| 2026-04-25 17:53 | 20.87351 | -87.32595 | 7966 ft | 287 kts | 263° |
| 2026-04-25 17:53 | 20.87042 | -87.34704 | 7960 ft | 287 kts | 263° |
| 2026-04-25 17:53 | 20.86731 | -87.36817 | 8021 ft | 290 kts | 263° |
| 2026-04-25 17:54 | 20.86417 | -87.38961 | 8638 ft | 293 kts | 263° |
| 2026-04-25 17:54 | 20.86103 | -87.41091 | 9485 ft | 293 kts | 264° |
| 2026-04-25 17:54 | 20.85784 | -87.43263 | 10234 ft | 297 kts | 264° |
| 2026-04-25 17:54 | 20.85454 | -87.45522 | 10488 ft | 320 kts | 264° |
| 2026-04-25 17:55 | 20.85100 | -87.47935 | 10901 ft | 333 kts | 264° |
| 2026-04-25 17:55 | 20.84737 | -87.50389 | 11557 ft | 337 kts | 264° |
| 2026-04-25 17:55 | 20.84376 | -87.52855 | 12291 ft | 340 kts | 266° |
| 2026-04-25 17:55 | 20.84333 | -87.55419 | 12507 ft | 355 kts | 277° |
| 2026-04-25 17:56 | 20.84573 | -87.58109 | 12654 ft | 372 kts | 279° |
| 2026-04-25 17:56 | 20.84877 | -87.60921 | 12855 ft | 387 kts | 279° |
| 2026-04-25 17:56 | 20.85194 | -87.63811 | 13341 ft | 392 kts | 279° |
| 2026-04-25 17:56 | 20.85500 | -87.66686 | 13916 ft | 393 kts | 279° |
| 2026-04-25 17:57 | 20.85799 | -87.69610 | 14469 ft | 394 kts | 278° |
| 2026-04-25 17:57 | 20.86088 | -87.72537 | 15016 ft | 395 kts | 278° |
| 2026-04-25 17:57 | 20.86370 | -87.75460 | 15548 ft | 396 kts | 278° |
| 2026-04-25 17:57 | 20.86461 | -87.76411 | 15723 ft | 397 kts | 278° |
| 2026-04-25 17:58 | 20.86925 | -87.81342 | 16548 ft | 399 kts | 278° |
| 2026-04-25 17:58 | 20.87201 | -87.84300 | 17048 ft | 400 kts | 278° |
| 2026-04-25 17:58 | 20.87477 | -87.87268 | 17534 ft | 402 kts | 278° |
| 2026-04-25 17:58 | 20.87753 | -87.90251 | 18010 ft | 403 kts | 277° |
| 2026-04-25 17:59 | 20.88029 | -87.93236 | 18421 ft | 405 kts | 277° |
| 2026-04-25 17:59 | 20.88302 | -87.96198 | 18803 ft | 406 kts | 277° |
| 2026-04-25 17:59 | 20.88581 | -87.99219 | 19176 ft | 408 kts | 277° |
| 2026-04-25 17:59 | 20.88860 | -88.02258 | 19554 ft | 409 kts | 277° |
| 2026-04-25 18:00 | 20.89137 | -88.05273 | 19909 ft | 411 kts | 277° |
| 2026-04-25 18:00 | 20.89417 | -88.08338 | 20271 ft | 412 kts | 277° |
| 2026-04-25 18:00 | 20.89696 | -88.11386 | 20614 ft | 414 kts | 277° |
| 2026-04-25 18:00 | 20.89977 | -88.14462 | 20955 ft | 416 kts | 277° |
| 2026-04-25 18:01 | 20.90255 | -88.17519 | 21295 ft | 417 kts | 277° |
| 2026-04-25 18:01 | 20.90537 | -88.20615 | 21622 ft | 419 kts | 277° |
| 2026-04-25 18:01 | 20.90819 | -88.23724 | 21945 ft | 420 kts | 277° |
| 2026-04-25 18:01 | 20.91100 | -88.26836 | 22265 ft | 422 kts | 277° |
| 2026-04-25 18:02 | 20.91384 | -88.29977 | 22588 ft | 423 kts | 277° |
| 2026-04-25 18:02 | 20.91664 | -88.33082 | 22887 ft | 424 kts | 277° |
| 2026-04-25 18:02 | 20.91948 | -88.36235 | 23174 ft | 426 kts | 277° |
| 2026-04-25 18:02 | 20.92234 | -88.39421 | 23430 ft | 428 kts | 277° |
| 2026-04-25 18:03 | 20.92517 | -88.42588 | 23670 ft | 429 kts | 277° |
| 2026-04-25 18:03 | 20.92799 | -88.45738 | 23904 ft | 430 kts | 277° |
| 2026-04-25 18:03 | 20.93085 | -88.48950 | 24135 ft | 432 kts | 277° |
| 2026-04-25 18:03 | 20.93371 | -88.52157 | 24351 ft | 433 kts | 277° |
| 2026-04-25 18:04 | 20.93656 | -88.55367 | 24578 ft | 434 kts | 277° |
| 2026-04-25 18:04 | 20.93939 | -88.58557 | 24803 ft | 435 kts | 277° |
| 2026-04-25 18:04 | 20.94226 | -88.61800 | 25018 ft | 436 kts | 277° |
| 2026-04-25 18:04 | 20.94510 | -88.65018 | 25222 ft | 437 kts | 277° |
| 2026-04-25 18:05 | 20.94796 | -88.68272 | 25446 ft | 438 kts | 277° |
| 2026-04-25 18:05 | 20.95080 | -88.71503 | 25638 ft | 440 kts | 277° |
| 2026-04-25 18:05 | 20.95367 | -88.74778 | 25842 ft | 441 kts | 277° |
| 2026-04-25 18:05 | 20.95651 | -88.78023 | 26027 ft | 442 kts | 277° |
| 2026-04-25 18:06 | 20.95937 | -88.81295 | 26210 ft | 444 kts | 277° |
| 2026-04-25 18:06 | 20.96225 | -88.84604 | 26408 ft | 445 kts | 277° |
| 2026-04-25 18:06 | 20.96511 | -88.87892 | 26589 ft | 446 kts | 277° |
| 2026-04-25 18:06 | 20.96796 | -88.91175 | 26762 ft | 447 kts | 277° |
| 2026-04-25 18:07 | 20.97084 | -88.94503 | 26972 ft | 447 kts | 277° |
| 2026-04-25 18:07 | 20.97368 | -88.97801 | 27251 ft | 446 kts | 277° |
| 2026-04-25 18:07 | 20.97654 | -89.01126 | 27570 ft | 444 kts | 277° |
| 2026-04-25 18:07 | 20.97933 | -89.04373 | 27853 ft | 443 kts | 277° |
| 2026-04-25 18:08 | 20.98215 | -89.07665 | 28120 ft | 442 kts | 277° |
| 2026-04-25 18:08 | 20.98496 | -89.10955 | 28405 ft | 441 kts | 277° |
| 2026-04-25 18:08 | 20.98772 | -89.14189 | 28710 ft | 440 kts | 277° |
| 2026-04-25 18:08 | 20.99051 | -89.17468 | 29042 ft | 439 kts | 277° |
| 2026-04-25 18:09 | 20.99325 | -89.20695 | 29350 ft | 438 kts | 277° |
| 2026-04-25 18:09 | 20.99602 | -89.23954 | 29646 ft | 437 kts | 277° |
| 2026-04-25 18:09 | 20.99872 | -89.27151 | 29956 ft | 436 kts | 277° |
| 2026-04-25 18:10 | 21.00416 | -89.33606 | 30509 ft | 434 kts | 277° |
| 2026-04-25 18:10 | 21.00686 | -89.36814 | 30772 ft | 433 kts | 277° |
| 2026-04-25 18:10 | 21.00956 | -89.40038 | 31040 ft | 433 kts | 277° |
| 2026-04-25 18:10 | 21.01221 | -89.43205 | 31321 ft | 431 kts | 277° |
| 2026-04-25 18:11 | 21.01489 | -89.46419 | 31608 ft | 430 kts | 277° |
| 2026-04-25 18:11 | 21.01753 | -89.49588 | 31889 ft | 430 kts | 276° |
| 2026-04-25 18:11 | 21.02018 | -89.52779 | 32173 ft | 429 kts | 276° |
| 2026-04-25 18:11 | 21.02282 | -89.55967 | 32468 ft | 428 kts | 276° |
| 2026-04-25 18:12 | 21.02542 | -89.59114 | 32757 ft | 427 kts | 276° |
| 2026-04-25 18:12 | 21.02803 | -89.62281 | 33034 ft | 426 kts | 276° |
| 2026-04-25 18:12 | 21.03062 | -89.65420 | 33290 ft | 426 kts | 276° |
| 2026-04-25 18:12 | 21.03322 | -89.68588 | 33562 ft | 425 kts | 276° |
| 2026-04-25 18:13 | 21.03580 | -89.71734 | 33833 ft | 424 kts | 276° |
| 2026-04-25 18:13 | 21.04094 | -89.78024 | 33849 ft | 426 kts | 276° |
| 2026-04-25 18:14 | 21.04777 | -89.86436 | 33852 ft | 423 kts | 276° |
| 2026-04-25 18:14 | 21.05280 | -89.92671 | 33847 ft | 422 kts | 276° |
| 2026-04-25 18:15 | 21.05785 | -89.98950 | 33846 ft | 421 kts | 276° |
| 2026-04-25 18:15 | 21.06285 | -90.05189 | 33848 ft | 421 kts | 276° |
| 2026-04-25 18:16 | 21.06781 | -90.11415 | 33846 ft | 421 kts | 276° |
| 2026-04-25 18:17 | 21.07524 | -90.20801 | 33850 ft | 423 kts | 276° |
| 2026-04-25 18:17 | 21.08019 | -90.27084 | 33847 ft | 424 kts | 276° |
| 2026-04-25 18:18 | 21.08512 | -90.33379 | 33850 ft | 426 kts | 276° |
| 2026-04-25 18:18 | 21.09008 | -90.39729 | 33854 ft | 427 kts | 276° |
| 2026-04-25 18:19 | 21.09500 | -90.46069 | 33849 ft | 427 kts | 276° |
| 2026-04-25 18:19 | 21.09989 | -90.52401 | 33848 ft | 428 kts | 276° |
| 2026-04-25 18:20 | 21.10475 | -90.58732 | 33855 ft | 428 kts | 276° |
| 2026-04-25 18:20 | 21.10962 | -90.65092 | 33855 ft | 428 kts | 276° |
| 2026-04-25 18:21 | 21.11446 | -90.71456 | 33857 ft | 428 kts | 276° |
| 2026-04-25 18:21 | 21.11923 | -90.77762 | 33859 ft | 428 kts | 276° |
| 2026-04-25 18:22 | 21.12403 | -90.84134 | 33861 ft | 427 kts | 276° |
| 2026-04-25 18:22 | 21.12876 | -90.90434 | 33857 ft | 427 kts | 276° |
| 2026-04-25 18:23 | 21.13351 | -90.96809 | 33863 ft | 427 kts | 276° |
| 2026-04-25 18:23 | 21.13819 | -91.03110 | 33858 ft | 427 kts | 276° |
| 2026-04-25 18:24 | 21.14287 | -91.09453 | 33861 ft | 426 kts | 276° |
| 2026-04-25 18:24 | 21.14751 | -91.15765 | 33861 ft | 426 kts | 276° |
| 2026-04-25 18:25 | 21.15215 | -91.22112 | 33858 ft | 426 kts | 276° |
| 2026-04-25 18:25 | 21.15676 | -91.28449 | 33856 ft | 427 kts | 276° |
| 2026-04-25 18:26 | 21.16135 | -91.34798 | 33858 ft | 427 kts | 276° |
| 2026-04-25 18:26 | 21.16588 | -91.41092 | 33861 ft | 427 kts | 276° |
| 2026-04-25 18:27 | 21.17042 | -91.47434 | 33859 ft | 427 kts | 276° |
| 2026-04-25 18:27 | 21.17495 | -91.53798 | 33864 ft | 427 kts | 276° |
| 2026-04-25 18:28 | 21.17945 | -91.60148 | 33861 ft | 428 kts | 276° |
| 2026-04-25 18:28 | 21.18393 | -91.66504 | 33856 ft | 428 kts | 276° |
| 2026-04-25 18:29 | 21.19059 | -91.76027 | 33853 ft | 428 kts | 276° |
| 2026-04-25 18:30 | 21.19940 | -91.88739 | 33853 ft | 428 kts | 276° |
| 2026-04-25 18:30 | 21.20378 | -91.95104 | 33856 ft | 428 kts | 276° |
| 2026-04-25 18:31 | 21.20813 | -92.01472 | 33852 ft | 428 kts | 276° |
| 2026-04-25 18:31 | 21.21246 | -92.07836 | 33850 ft | 428 kts | 276° |
| 2026-04-25 18:32 | 21.21673 | -92.14155 | 33848 ft | 428 kts | 276° |
| 2026-04-25 18:32 | 21.22103 | -92.20554 | 33851 ft | 428 kts | 276° |
| 2026-04-25 18:33 | 21.22527 | -92.26890 | 33845 ft | 428 kts | 276° |
| 2026-04-25 18:33 | 21.22950 | -92.33248 | 33844 ft | 428 kts | 276° |
| 2026-04-25 18:34 | 21.23371 | -92.39626 | 33843 ft | 428 kts | 275° |
| 2026-04-25 18:34 | 21.23789 | -92.45976 | 33837 ft | 428 kts | 275° |
| 2026-04-25 18:35 | 21.24205 | -92.52351 | 33839 ft | 429 kts | 275° |
| 2026-04-25 18:35 | 21.24621 | -92.58745 | 33839 ft | 429 kts | 275° |
| 2026-04-25 18:36 | 21.25031 | -92.65093 | 33839 ft | 429 kts | 275° |
| 2026-04-25 18:36 | 21.25440 | -92.71472 | 33832 ft | 429 kts | 275° |
| 2026-04-25 18:37 | 21.25847 | -92.77850 | 33836 ft | 429 kts | 275° |
| 2026-04-25 18:37 | 21.26254 | -92.84253 | 33837 ft | 429 kts | 275° |
| 2026-04-25 18:38 | 21.26654 | -92.90593 | 33834 ft | 429 kts | 275° |
| 2026-04-25 18:38 | 21.27054 | -92.96976 | 33833 ft | 429 kts | 275° |
| 2026-04-25 18:39 | 21.27453 | -93.03393 | 33830 ft | 429 kts | 275° |
| 2026-04-25 18:39 | 21.27847 | -93.09754 | 33827 ft | 429 kts | 275° |
| 2026-04-25 18:40 | 21.28240 | -93.16137 | 33827 ft | 429 kts | 275° |
| 2026-04-25 18:40 | 21.28631 | -93.22533 | 33828 ft | 430 kts | 275° |
| 2026-04-25 18:41 | 21.29020 | -93.28922 | 33821 ft | 430 kts | 275° |
| 2026-04-25 18:41 | 21.29407 | -93.35334 | 33827 ft | 430 kts | 275° |
| 2026-04-25 18:42 | 21.29662 | -93.39575 | 33823 ft | 430 kts | 275° |
| 2026-04-25 18:42 | 21.30171 | -93.48102 | 33815 ft | 430 kts | 275° |
| 2026-04-25 18:43 | 21.30551 | -93.54514 | 33814 ft | 430 kts | 275° |
| 2026-04-25 18:43 | 21.30928 | -93.60916 | 33812 ft | 430 kts | 275° |
| 2026-04-25 18:44 | 21.31301 | -93.67282 | 33813 ft | 430 kts | 275° |
| 2026-04-25 18:44 | 21.31673 | -93.73691 | 33812 ft | 430 kts | 275° |
| 2026-04-25 18:45 | 21.32043 | -93.80093 | 33813 ft | 430 kts | 275° |
| 2026-04-25 18:45 | 21.32411 | -93.86513 | 33814 ft | 430 kts | 275° |
| 2026-04-25 18:46 | 21.32776 | -93.92921 | 33808 ft | 430 kts | 275° |
| 2026-04-25 18:46 | 21.33138 | -93.99314 | 33810 ft | 430 kts | 275° |
| 2026-04-25 18:47 | 21.33497 | -94.05701 | 33809 ft | 430 kts | 275° |
| 2026-04-25 18:47 | 21.33853 | -94.12089 | 33810 ft | 430 kts | 275° |
| 2026-04-25 18:48 | 21.34210 | -94.18515 | 33809 ft | 430 kts | 275° |
| 2026-04-25 18:48 | 21.34562 | -94.24915 | 33808 ft | 430 kts | 275° |
| 2026-04-25 18:49 | 21.34911 | -94.31299 | 33809 ft | 430 kts | 275° |
| 2026-04-25 18:49 | 21.35260 | -94.37718 | 33810 ft | 430 kts | 275° |
| 2026-04-25 18:50 | 21.35605 | -94.44125 | 33806 ft | 430 kts | 275° |
| 2026-04-25 18:50 | 21.35948 | -94.50522 | 33810 ft | 430 kts | 275° |
| 2026-04-25 18:51 | 21.36175 | -94.54787 | 33809 ft | 430 kts | 275° |
| 2026-04-25 18:51 | 21.36626 | -94.63313 | 33806 ft | 430 kts | 275° |
| 2026-04-25 18:52 | 21.36962 | -94.69732 | 33807 ft | 430 kts | 275° |
| 2026-04-25 18:52 | 21.37295 | -94.76141 | 33805 ft | 430 kts | 275° |
| 2026-04-25 18:53 | 21.37626 | -94.82548 | 33805 ft | 430 kts | 275° |
| 2026-04-25 18:53 | 21.37953 | -94.88932 | 33804 ft | 430 kts | 275° |
| 2026-04-25 18:54 | 21.38442 | -94.98563 | 33802 ft | 430 kts | 275° |
| 2026-04-25 18:55 | 21.38764 | -95.04949 | 33804 ft | 430 kts | 275° |
| 2026-04-25 18:55 | 21.39083 | -95.11356 | 33798 ft | 430 kts | 275° |
| 2026-04-25 18:56 | 21.39401 | -95.17777 | 33797 ft | 430 kts | 275° |
| 2026-04-25 18:56 | 21.39715 | -95.24164 | 33797 ft | 431 kts | 275° |
| 2026-04-25 18:57 | 21.40029 | -95.30593 | 33798 ft | 431 kts | 275° |
| 2026-04-25 18:57 | 21.40340 | -95.37012 | 33796 ft | 431 kts | 275° |
| 2026-04-25 18:58 | 21.40648 | -95.43445 | 33793 ft | 431 kts | 275° |
| 2026-04-25 18:58 | 21.41106 | -95.53067 | 33793 ft | 431 kts | 275° |
| 2026-04-25 18:59 | 21.41709 | -95.65936 | 33791 ft | 432 kts | 275° |
| 2026-04-25 19:00 | 21.42154 | -95.75567 | 33790 ft | 432 kts | 275° |
| 2026-04-25 19:01 | 21.42594 | -95.85213 | 33792 ft | 432 kts | 275° |
| 2026-04-25 19:01 | 21.42885 | -95.91671 | 33786 ft | 432 kts | 275° |
| 2026-04-25 19:02 | 21.43316 | -96.01330 | 33788 ft | 433 kts | 275° |
| 2026-04-25 19:03 | 21.43648 | -96.08851 | 33783 ft | 433 kts | 274° |
| 2026-04-25 19:03 | 21.44023 | -96.17426 | 33783 ft | 433 kts | 274° |
| 2026-04-25 19:04 | 21.44702 | -96.33247 | 33783 ft | 433 kts | 274° |
| 2026-04-25 19:05 | 21.45781 | -96.59121 | 33781 ft | 434 kts | 274° |
| 2026-04-25 19:06 | 21.46306 | -96.72082 | 33780 ft | 434 kts | 274° |
| 2026-04-25 19:06 | 21.46990 | -96.89333 | 33775 ft | 435 kts | 274° |
| 2026-04-25 19:07 | 21.47740 | -97.08803 | 33786 ft | 435 kts | 274° |
| 2026-04-25 19:08 | 21.48467 | -97.28266 | 33776 ft | 435 kts | 274° |
| 2026-04-25 19:09 | 21.49326 | -97.52068 | 33772 ft | 435 kts | 274° |
| 2026-04-25 19:10 | 21.50075 | -97.73649 | 33760 ft | 435 kts | 273° |
| 2026-04-25 19:10 | 21.50514 | -97.86652 | 33755 ft | 436 kts | 273° |
| 2026-04-25 19:11 | 21.50943 | -97.99677 | 33751 ft | 436 kts | 273° |
| 2026-04-25 19:11 | 21.51360 | -98.12671 | 33747 ft | 435 kts | 273° |
| 2026-04-25 19:12 | 21.51775 | -98.25673 | 33743 ft | 435 kts | 273° |
| 2026-04-25 19:12 | 21.52166 | -98.38653 | 33737 ft | 435 kts | 273° |
| 2026-04-25 19:13 | 21.52552 | -98.51653 | 33733 ft | 435 kts | 273° |
| 2026-04-25 19:13 | 21.52928 | -98.64578 | 33743 ft | 434 kts | 273° |
| 2026-04-25 19:14 | 21.53294 | -98.77549 | 33740 ft | 434 kts | 273° |
| 2026-04-25 19:14 | 21.53650 | -98.90497 | 33757 ft | 433 kts | 273° |
| 2026-04-25 19:15 | 21.53996 | -99.03457 | 33755 ft | 433 kts | 273° |
| 2026-04-25 19:15 | 21.54330 | -99.16278 | 33757 ft | 432 kts | 273° |
| 2026-04-25 19:16 | 21.54655 | -99.29189 | 33745 ft | 432 kts | 273° |
| 2026-04-25 19:16 | 21.54969 | -99.42072 | 33685 ft | 433 kts | 272° |
| 2026-04-25 19:16 | 21.55128 | -99.48617 | 33198 ft | 442 kts | 272° |
| 2026-04-25 19:17 | 21.55222 | -99.52651 | 32879 ft | 439 kts | 272° |
| 2026-04-25 19:17 | 21.55296 | -99.55911 | 32569 ft | 433 kts | 272° |
| 2026-04-25 19:17 | 21.55370 | -99.59149 | 31799 ft | 434 kts | 272° |
| 2026-04-25 19:17 | 21.55445 | -99.62390 | 31063 ft | 434 kts | 272° |
| 2026-04-25 19:18 | 21.55519 | -99.65640 | 30297 ft | 436 kts | 272° |
| 2026-04-25 19:18 | 21.55593 | -99.68905 | 29424 ft | 439 kts | 272° |
| 2026-04-25 19:18 | 21.55667 | -99.72190 | 28588 ft | 439 kts | 272° |
| 2026-04-25 19:18 | 21.55606 | -99.75439 | 27975 ft | 434 kts | 262° |
| 2026-04-25 19:19 | 21.54753 | -99.78537 | 27395 ft | 433 kts | 247° |
| 2026-04-25 19:19 | 21.53181 | -99.81296 | 26797 ft | 434 kts | 234° |
| 2026-04-25 19:19 | 21.51072 | -99.83611 | 26221 ft | 435 kts | 222° |
| 2026-04-25 19:19 | 21.49433 | -99.84841 | 25833 ft | 437 kts | 212° |
| 2026-04-25 19:20 | 21.45683 | -99.86563 | 25068 ft | 437 kts | 203° |
| 2026-04-25 19:20 | 21.42816 | -99.87666 | 24485 ft | 436 kts | 202° |
| 2026-04-25 19:20 | 21.39962 | -99.88735 | 23887 ft | 435 kts | 202° |
| 2026-04-25 19:20 | 21.37111 | -99.89809 | 23301 ft | 433 kts | 202° |
| 2026-04-25 19:21 | 21.34274 | -99.90896 | 22634 ft | 432 kts | 202° |
| 2026-04-25 19:21 | 21.28685 | -99.93080 | 21849 ft | 417 kts | 202° |
| 2026-04-25 19:21 | 21.26012 | -99.94134 | 21781 ft | 415 kts | 202° |
| 2026-04-25 19:22 | 21.23348 | -99.95186 | 21755 ft | 401 kts | 202° |
| 2026-04-25 19:22 | 21.20767 | -99.96206 | 21578 ft | 391 kts | 202° |
| 2026-04-25 19:22 | 21.15697 | -99.98208 | 20528 ft | 391 kts | 202° |
| 2026-04-25 19:23 | 21.13091 | -99.99238 | 19395 ft | 408 kts | 202° |
| 2026-04-25 19:23 | 21.07647 | -100.01386 | 17833 ft | 419 kts | 202° |
| 2026-04-25 19:23 | 21.04927 | -100.02455 | 17342 ft | 414 kts | 202° |
| 2026-04-25 19:24 | 21.02243 | -100.03507 | 16917 ft | 408 kts | 201° |
| 2026-04-25 19:24 | 20.99594 | -100.04546 | 16407 ft | 404 kts | 202° |
| 2026-04-25 19:24 | 20.94371 | -100.06593 | 15469 ft | 396 kts | 202° |
| 2026-04-25 19:25 | 20.89239 | -100.08610 | 14056 ft | 389 kts | 201° |
| 2026-04-25 19:25 | 20.86714 | -100.09601 | 13245 ft | 385 kts | 201° |
| 2026-04-25 19:25 | 20.84216 | -100.10578 | 12433 ft | 380 kts | 202° |
| 2026-04-25 19:26 | 20.81716 | -100.11302 | 11619 ft | 378 kts | 185° |
| 2026-04-25 19:26 | 20.79204 | -100.10792 | 11477 ft | 362 kts | 157° |
| 2026-04-25 19:26 | 20.77246 | -100.09184 | 11307 ft | 355 kts | 128° |
| 2026-04-25 19:26 | 20.76211 | -100.06831 | 11109 ft | 352 kts | 102° |
| 2026-04-25 19:27 | 20.76243 | -100.04275 | 10793 ft | 338 kts | 80° |
| 2026-04-25 19:27 | 20.76402 | -100.02613 | 10596 ft | 329 kts | 95° |
| 2026-04-25 19:27 | 20.75260 | -99.99836 | 10445 ft | 302 kts | 138° |
| 2026-04-25 19:27 | 20.73504 | -99.98768 | 10262 ft | 284 kts | 173° |
| 2026-04-25 19:28 | 20.71630 | -99.98879 | 10248 ft | 262 kts | 197° |
| 2026-04-25 19:28 | 20.69846 | -99.99263 | 10080 ft | 262 kts | 187° |
| 2026-04-25 19:28 | 20.68033 | -99.99157 | 9897 ft | 263 kts | 167° |
| 2026-04-25 19:28 | 20.66300 | -99.98580 | 9762 ft | 258 kts | 168° |
| 2026-04-25 19:29 | 20.64544 | -99.98220 | 9612 ft | 256 kts | 176° |
| 2026-04-25 19:29 | 20.62781 | -99.98062 | 9437 ft | 252 kts | 181° |
| 2026-04-25 19:29 | 20.61055 | -99.98064 | 9255 ft | 249 kts | 193° |
| 2026-04-25 19:29 | 20.59540 | -99.98808 | 9147 ft | 240 kts | 227° |
| 2026-04-25 19:30 | 20.58685 | -100.00261 | 9009 ft | 229 kts | 255° |
| 2026-04-25 19:30 | 20.58610 | -100.01884 | 8901 ft | 215 kts | 278° |
| 2026-04-25 19:30 | 20.58829 | -100.03432 | 8695 ft | 204 kts | 278° |
| 2026-04-25 19:30 | 20.59067 | -100.04883 | 8500 ft | 193 kts | 280° |
| 2026-04-25 19:31 | 20.59321 | -100.06245 | 8418 ft | 178 kts | 279° |
| 2026-04-25 19:31 | 20.59565 | -100.07578 | 8223 ft | 185 kts | 280° |
| 2026-04-25 19:31 | 20.59853 | -100.08868 | 8077 ft | 170 kts | 283° |
| 2026-04-25 19:31 | 20.60160 | -100.10058 | 7858 ft | 165 kts | 283° |
| 2026-04-25 19:32 | 20.60409 | -100.11255 | 7750 ft | 164 kts | 280° |
| 2026-04-25 19:32 | 20.60625 | -100.12468 | 7567 ft | 168 kts | 279° |
| 2026-04-25 19:32 | 20.60814 | -100.13698 | 7332 ft | 167 kts | 280° |
| 2026-04-25 19:32 | 20.60965 | -100.14502 | 7219 ft | 165 kts | 280° |
| 2026-04-25 19:33 | 20.61276 | -100.16064 | 6845 ft | 158 kts | 278° |
| 2026-04-25 19:33 | 20.61487 | -100.17205 | 6636 ft | 150 kts | 281° |
| 2026-04-25 19:33 | 20.61661 | -100.18150 | 6625 ft | 100 kts | 281° |
| 2026-04-25 19:33 | 20.61756 | -100.18662 | 6628 ft | 53 kts | 281° |
| 2026-04-25 19:34 | 20.61812 | -100.18959 | 6630 ft | 30 kts | 285° |
| 2026-04-25 19:34 | 20.61881 | -100.19118 | 6630 ft | 18 kts | 305° |
| 2026-04-25 19:34 | 20.61951 | -100.19205 | 6628 ft | 14 kts | 310° |
| 2026-04-25 19:34 | 20.61989 | -100.19253 | 6628 ft | 7 kts | 310° |
| 2026-04-25 19:35 | 20.62021 | -100.19291 | 6629 ft | 7 kts | 317° |
| 2026-04-25 19:35 | 20.62064 | -100.19310 | 6629 ft | 7 kts | 358° |
| 2026-04-25 19:35 | 20.62110 | -100.19303 | 6627 ft | 7 kts | 11° |
| 2026-04-25 19:35 | 20.62155 | -100.19294 | 6627 ft | 7 kts | 11° |
| 2026-04-25 19:36 | 20.62192 | -100.19270 | 6628 ft | 6 kts | 60° |
| 2026-04-25 19:36 | 20.62189 | -100.19223 | 6629 ft | 7 kts | 102° |
| 2026-04-25 19:36 | 20.62180 | -100.19175 | 6629 ft | 7 kts | 101° |
| 2026-04-25 19:36 | 20.62172 | -100.19128 | 6629 ft | 6 kts | 101° |
| 2026-04-25 19:37 | 20.62164 | -100.19081 | 6630 ft | 6 kts | 101° |
| 2026-04-25 19:37 | 20.62155 | -100.19036 | 6632 ft | 6 kts | 101° |
| 2026-04-25 19:37 | 20.62147 | -100.18992 | 6633 ft | 6 kts | 101° |
| 2026-04-25 19:37 | 20.62139 | -100.18950 | 6632 ft | 6 kts | 101° |
| 2026-04-25 19:38 | 20.62151 | -100.18928 | 6634 ft | 3 kts | 26° |
| 2026-04-25 19:38 | 20.62175 | -100.18921 | 6635 ft | 4 kts | 12° |
| 2026-04-25 19:38 | 20.62201 | -100.18915 | 6634 ft | 4 kts | 12° |
| 2026-04-25 19:38 | 20.62229 | -100.18910 | 6633 ft | 4 kts | 11° |
| 2026-04-25 19:39 | 20.62235 | -100.18908 | 6634 ft | 0 kts | 11° |